sensor_id;sensor_type;location;lat;lon;timestamp;pressure;altitude;pressure_sealevel;temperature;humidity
73952;BME280;62304;47.662;18.324;2023-04-16T00:02:39;100015.22;;;7.40;92.48
73952;BME280;62304;47.662;18.324;2023-04-16T00:05:42;100015.94;;;7.21;92.27
73952;BME280;62304;47.662;18.324;2023-04-16T00:08:45;100014.97;;;7.29;91.92
73952;BME280;62304;47.662;18.324;2023-04-16T00:11:48;100008.91;;;7.24;91.80
73952;BME280;62304;47.662;18.324;2023-04-16T00:14:51;100016.56;;;6.99;91.48
73952;BME280;62304;47.662;18.324;2023-04-16T00:17:55;100020.34;;;6.79;93.15
73952;BME280;62304;47.662;18.324;2023-04-16T00:20:57;100026.56;;;6.76;92.96
73952;BME280;62304;47.662;18.324;2023-04-16T00:24:01;100025.41;;;6.77;93.34
73952;BME280;62304;47.662;18.324;2023-04-16T00:27:04;100018.66;;;6.75;93.48
73952;BME280;62304;47.662;18.324;2023-04-16T00:30:08;100033.16;;;6.72;93.82
73952;BME280;62304;47.662;18.324;2023-04-16T00:33:11;100031.62;;;6.47;93.57
73952;BME280;62304;47.662;18.324;2023-04-16T00:36:14;100032.63;;;6.27;95.39
73952;BME280;62304;47.662;18.324;2023-04-16T00:39:17;100038.03;;;6.23;95.64
73952;BME280;62304;47.662;18.324;2023-04-16T00:42:20;100041.50;;;6.20;94.99
73952;BME280;62304;47.662;18.324;2023-04-16T00:45:22;100036.87;;;6.24;95.09
73952;BME280;62304;47.662;18.324;2023-04-16T00:48:26;100039.75;;;6.28;95.34
73952;BME280;62304;47.662;18.324;2023-04-16T00:51:29;100036.53;;;6.26;95.16
73952;BME280;62304;47.662;18.324;2023-04-16T00:54:33;100037.69;;;6.25;95.20
73952;BME280;62304;47.662;18.324;2023-04-16T00:57:36;100040.41;;;5.97;97.24
73952;BME280;62304;47.662;18.324;2023-04-16T01:00:39;100031.06;;;6.14;96.39
73952;BME280;62304;47.662;18.324;2023-04-16T01:03:45;100032.56;;;6.11;95.96
73952;BME280;62304;47.662;18.324;2023-04-16T01:06:48;100034.72;;;6.18;94.94
73952;BME280;62304;47.662;18.324;2023-04-16T01:09:52;100029.31;;;6.21;94.59
73952;BME280;62304;47.662;18.324;2023-04-16T01:12:55;100028.59;;;6.36;94.49
73952;BME280;62304;47.662;18.324;2023-04-16T01:15:59;100039.59;;;6.36;94.36
73952;BME280;62304;47.662;18.324;2023-04-16T01:19:02;100033.28;;;6.36;94.39
73952;BME280;62304;47.662;18.324;2023-04-16T01:22:05;100046.12;;;6.04;95.60
73952;BME280;62304;47.662;18.324;2023-04-16T01:25:13;100039.25;;;5.98;95.29
73952;BME280;62304;47.662;18.324;2023-04-16T01:28:17;100047.94;;;6.00;95.22
73952;BME280;62304;47.662;18.324;2023-04-16T01:31:20;100044.50;;;6.03;94.68
73952;BME280;62304;47.662;18.324;2023-04-16T01:34:23;100041.63;;;6.00;94.60
73952;BME280;62304;47.662;18.324;2023-04-16T01:37:27;100045.06;;;6.09;94.04
73952;BME280;62304;47.662;18.324;2023-04-16T01:40:29;100046.22;;;6.08;93.87
73952;BME280;62304;47.662;18.324;2023-04-16T01:43:33;100056.78;;;5.94;93.85
73952;BME280;62304;47.662;18.324;2023-04-16T01:46:36;100054.06;;;5.82;94.19
73952;BME280;62304;47.662;18.324;2023-04-16T01:49:41;100046.59;;;5.70;94.68
73952;BME280;62304;47.662;18.324;2023-04-16T01:52:45;100047.75;;;5.81;94.32
73952;BME280;62304;47.662;18.324;2023-04-16T01:55:48;100048.62;;;5.73;94.19
73952;BME280;62304;47.662;18.324;2023-04-16T01:58:51;100051.88;;;5.87;93.29
73952;BME280;62304;47.662;18.324;2023-04-16T02:01:55;100055.91;;;5.90;92.51
73952;BME280;62304;47.662;18.324;2023-04-16T02:04:58;100057.63;;;5.82;93.03
73952;BME280;62304;47.662;18.324;2023-04-16T02:08:01;100061.03;;;5.67;93.36
73952;BME280;62304;47.662;18.324;2023-04-16T02:11:04;100061.72;;;5.52;93.59
73952;BME280;62304;47.662;18.324;2023-04-16T02:14:08;100052.41;;;5.45;93.95
73952;BME280;62304;47.662;18.324;2023-04-16T02:17:11;100056.31;;;5.44;93.81
73952;BME280;62304;47.662;18.324;2023-04-16T02:20:14;100052.56;;;5.48;93.10
73952;BME280;62304;47.662;18.324;2023-04-16T02:23:17;100050.59;;;5.61;92.39
73952;BME280;62304;47.662;18.324;2023-04-16T02:26:20;100043.59;;;5.63;92.16
73952;BME280;62304;47.662;18.324;2023-04-16T02:29:23;100050.03;;;5.55;92.44
73952;BME280;62304;47.662;18.324;2023-04-16T02:32:26;100054.84;;;5.46;92.42
73952;BME280;62304;47.662;18.324;2023-04-16T02:35:29;100061.25;;;5.26;92.45
73952;BME280;62304;47.662;18.324;2023-04-16T02:38:32;100062.00;;;5.03;92.94
73952;BME280;62304;47.662;18.324;2023-04-16T02:41:35;100064.88;;;5.06;93.39
73952;BME280;62304;47.662;18.324;2023-04-16T02:44:38;100069.53;;;4.94;93.51
73952;BME280;62304;47.662;18.324;2023-04-16T02:47:41;100073.22;;;4.98;94.28
73952;BME280;62304;47.662;18.324;2023-04-16T02:50:44;100083.56;;;4.80;93.90
73952;BME280;62304;47.662;18.324;2023-04-16T02:53:46;100082.13;;;4.62;94.92
73952;BME280;62304;47.662;18.324;2023-04-16T02:56:49;100084.47;;;4.72;95.68
73952;BME280;62304;47.662;18.324;2023-04-16T02:59:52;100089.31;;;4.55;96.15
73952;BME280;62304;47.662;18.324;2023-04-16T03:02:55;100087.16;;;4.40;96.21
73952;BME280;62304;47.662;18.324;2023-04-16T03:05:58;100083.44;;;4.44;96.16
73952;BME280;62304;47.662;18.324;2023-04-16T03:09:01;100087.41;;;4.67;95.67
73952;BME280;62304;47.662;18.324;2023-04-16T03:12:04;100089.19;;;4.84;95.11
73952;BME280;62304;47.662;18.324;2023-04-16T03:15:07;100094.75;;;4.75;95.21
73952;BME280;62304;47.662;18.324;2023-04-16T03:18:10;100102.31;;;4.66;95.35
73952;BME280;62304;47.662;18.324;2023-04-16T03:21:13;100103.69;;;4.72;95.08
73952;BME280;62304;47.662;18.324;2023-04-16T03:24:16;100107.22;;;4.73;94.79
73952;BME280;62304;47.662;18.324;2023-04-16T03:27:22;100113.16;;;4.63;94.59
73952;BME280;62304;47.662;18.324;2023-04-16T03:30:26;100102.22;;;4.75;95.22
73952;BME280;62304;47.662;18.324;2023-04-16T03:33:28;100115.47;;;4.73;94.66
73952;BME280;62304;47.662;18.324;2023-04-16T03:36:32;100110.59;;;4.78;95.04
73952;BME280;62304;47.662;18.324;2023-04-16T03:39:34;100120.34;;;4.88;94.98
73952;BME280;62304;47.662;18.324;2023-04-16T03:42:37;100117.78;;;4.50;97.42
73952;BME280;62304;47.662;18.324;2023-04-16T03:45:44;100128.69;;;4.38;98.58
73952;BME280;62304;47.662;18.324;2023-04-16T03:48:47;100120.91;;;4.61;98.16
73952;BME280;62304;47.662;18.324;2023-04-16T03:51:50;100128.41;;;4.72;97.87
73952;BME280;62304;47.662;18.324;2023-04-16T03:54:53;100131.66;;;4.86;98.04
73952;BME280;62304;47.662;18.324;2023-04-16T03:57:56;100127.56;;;4.92;97.68
73952;BME280;62304;47.662;18.324;2023-04-16T04:00:59;100134.56;;;4.90;97.89
73952;BME280;62304;47.662;18.324;2023-04-16T04:04:04;100130.81;;;4.94;97.86
73952;BME280;62304;47.662;18.324;2023-04-16T04:07:07;100124.16;;;4.95;98.26
73952;BME280;62304;47.662;18.324;2023-04-16T04:10:10;100129.44;;;5.00;98.53
73952;BME280;62304;47.662;18.324;2023-04-16T04:13:13;100140.09;;;5.02;98.76
73952;BME280;62304;47.662;18.324;2023-04-16T04:16:17;100143.44;;;5.07;98.48
73952;BME280;62304;47.662;18.324;2023-04-16T04:19:20;100153.44;;;5.12;98.25
73952;BME280;62304;47.662;18.324;2023-04-16T04:22:23;100158.44;;;5.10;98.70
73952;BME280;62304;47.662;18.324;2023-04-16T04:25:26;100166.28;;;5.20;99.31
73952;BME280;62304;47.662;18.324;2023-04-16T04:28:31;100166.59;;;5.18;100.00
73952;BME280;62304;47.662;18.324;2023-04-16T04:31:34;100174.19;;;5.21;100.00
73952;BME280;62304;47.662;18.324;2023-04-16T04:34:38;100167.09;;;5.20;99.77
73952;BME280;62304;47.662;18.324;2023-04-16T04:37:41;100174.84;;;5.18;100.00
73952;BME280;62304;47.662;18.324;2023-04-16T04:40:45;100183.22;;;5.22;100.00
73952;BME280;62304;47.662;18.324;2023-04-16T04:43:49;100183.59;;;5.20;100.00
73952;BME280;62304;47.662;18.324;2023-04-16T04:46:52;100178.75;;;5.17;100.00
73952;BME280;62304;47.662;18.324;2023-04-16T04:49:54;100179.19;;;5.19;100.00
73952;BME280;62304;47.662;18.324;2023-04-16T04:52:57;100188.81;;;5.13;100.00
73952;BME280;62304;47.662;18.324;2023-04-16T04:56:01;100187.91;;;5.09;100.00
73952;BME280;62304;47.662;18.324;2023-04-16T04:59:14;100195.41;;;5.00;100.00
73952;BME280;62304;47.662;18.324;2023-04-16T05:02:18;100201.81;;;5.25;100.00
73952;BME280;62304;47.662;18.324;2023-04-16T05:05:22;100200.13;;;5.32;100.00
73952;BME280;62304;47.662;18.324;2023-04-16T05:08:24;100193.47;;;5.33;100.00
73952;BME280;62304;47.662;18.324;2023-04-16T05:11:28;100188.09;;;5.37;100.00
73952;BME280;62304;47.662;18.324;2023-04-16T05:14:31;100203.53;;;5.29;100.00
73952;BME280;62304;47.662;18.324;2023-04-16T05:17:34;100216.44;;;5.49;100.00
73952;BME280;62304;47.662;18.324;2023-04-16T05:20:37;100209.81;;;5.74;100.00
73952;BME280;62304;47.662;18.324;2023-04-16T05:23:40;100204.84;;;5.88;100.00
73952;BME280;62304;47.662;18.324;2023-04-16T05:26:42;100216.56;;;5.97;100.00
73952;BME280;62304;47.662;18.324;2023-04-16T05:29:45;100215.53;;;5.90;100.00
73952;BME280;62304;47.662;18.324;2023-04-16T05:32:48;100217.56;;;5.81;100.00
73952;BME280;62304;47.662;18.324;2023-04-16T05:35:51;100217.41;;;5.77;100.00
73952;BME280;62304;47.662;18.324;2023-04-16T05:38:53;100204.62;;;5.93;100.00
73952;BME280;62304;47.662;18.324;2023-04-16T05:41:57;100211.41;;;6.08;100.00
73952;BME280;62304;47.662;18.324;2023-04-16T05:45:01;100218.16;;;6.22;100.00
73952;BME280;62304;47.662;18.324;2023-04-16T05:48:07;100211.03;;;6.45;100.00
73952;BME280;62304;47.662;18.324;2023-04-16T05:51:13;100208.50;;;6.64;100.00
73952;BME280;62304;47.662;18.324;2023-04-16T05:54:16;100204.66;;;6.81;100.00
73952;BME280;62304;47.662;18.324;2023-04-16T05:57:19;100210.72;;;6.98;100.00
73952;BME280;62304;47.662;18.324;2023-04-16T06:00:22;100206.09;;;7.02;99.80
73952;BME280;62304;47.662;18.324;2023-04-16T06:03:25;100221.62;;;6.95;99.67
73952;BME280;62304;47.662;18.324;2023-04-16T06:06:28;100215.09;;;6.87;100.00
73952;BME280;62304;47.662;18.324;2023-04-16T06:09:31;100221.06;;;6.89;99.82
73952;BME280;62304;47.662;18.324;2023-04-16T06:12:34;100221.03;;;7.01;100.00
73952;BME280;62304;47.662;18.324;2023-04-16T06:15:37;100230.41;;;7.12;100.00
73952;BME280;62304;47.662;18.324;2023-04-16T06:18:40;100226.59;;;7.72;99.95
73952;BME280;62304;47.662;18.324;2023-04-16T06:21:44;100223.34;;;7.70;98.57
73952;BME280;62304;47.662;18.324;2023-04-16T06:24:46;100223.00;;;7.71;97.77
73952;BME280;62304;47.662;18.324;2023-04-16T06:27:50;100232.66;;;8.08;96.82
73952;BME280;62304;47.662;18.324;2023-04-16T06:30:52;100238.19;;;7.93;96.28
73952;BME280;62304;47.662;18.324;2023-04-16T06:33:55;100244.41;;;8.05;96.40
73952;BME280;62304;47.662;18.324;2023-04-16T06:36:58;100246.12;;;8.10;96.55
73952;BME280;62304;47.662;18.324;2023-04-16T06:40:01;100252.03;;;8.24;96.11
73952;BME280;62304;47.662;18.324;2023-04-16T06:43:04;100238.19;;;8.39;95.90
73952;BME280;62304;47.662;18.324;2023-04-16T06:46:07;100235.91;;;8.41;95.49
73952;BME280;62304;47.662;18.324;2023-04-16T06:49:10;100243.25;;;8.53;95.64
73952;BME280;62304;47.662;18.324;2023-04-16T06:52:13;100232.81;;;8.62;95.19
73952;BME280;62304;47.662;18.324;2023-04-16T06:55:16;100233.66;;;8.47;95.66
73952;BME280;62304;47.662;18.324;2023-04-16T06:58:19;100230.13;;;8.65;95.17
73952;BME280;62304;47.662;18.324;2023-04-16T07:01:22;100233.75;;;8.85;94.99
73952;BME280;62304;47.662;18.324;2023-04-16T07:04:25;100237.41;;;9.08;94.29
73952;BME280;62304;47.662;18.324;2023-04-16T07:07:27;100247.41;;;9.31;93.50
73952;BME280;62304;47.662;18.324;2023-04-16T07:10:30;100249.88;;;9.36;93.13
73952;BME280;62304;47.662;18.324;2023-04-16T07:13:33;100244.66;;;9.50;92.55
73952;BME280;62304;47.662;18.324;2023-04-16T07:16:36;100251.34;;;9.68;92.00
73952;BME280;62304;47.662;18.324;2023-04-16T07:19:39;100238.59;;;9.86;91.89
73952;BME280;62304;47.662;18.324;2023-04-16T07:22:42;100239.97;;;9.96;91.12
73952;BME280;62304;47.662;18.324;2023-04-16T07:25:45;100242.56;;;9.85;90.96
73952;BME280;62304;47.662;18.324;2023-04-16T07:28:48;100245.44;;;10.11;90.13
73952;BME280;62304;47.662;18.324;2023-04-16T07:31:51;100236.31;;;10.11;89.84
73952;BME280;62304;47.662;18.324;2023-04-16T07:34:54;100242.34;;;10.39;89.38
73952;BME280;62304;47.662;18.324;2023-04-16T07:37:57;100239.19;;;10.92;88.61
73952;BME280;62304;47.662;18.324;2023-04-16T07:41:00;100236.66;;;11.39;86.26
73952;BME280;62304;47.662;18.324;2023-04-16T07:44:03;100246.75;;;11.51;85.15
73952;BME280;62304;47.662;18.324;2023-04-16T07:47:06;100250.59;;;11.43;85.20
73952;BME280;62304;47.662;18.324;2023-04-16T07:50:09;100251.41;;;11.73;84.48
73952;BME280;62304;47.662;18.324;2023-04-16T07:53:12;100253.78;;;11.74;84.13
73952;BME280;62304;47.662;18.324;2023-04-16T07:56:15;100256.59;;;11.78;84.07
73952;BME280;62304;47.662;18.324;2023-04-16T07:59:18;100254.47;;;11.64;83.37
73952;BME280;62304;47.662;18.324;2023-04-16T08:02:25;100259.88;;;11.57;83.67
73952;BME280;62304;47.662;18.324;2023-04-16T08:05:29;100252.50;;;11.39;84.12
73952;BME280;62304;47.662;18.324;2023-04-16T08:08:31;100253.31;;;11.39;84.17
73952;BME280;62304;47.662;18.324;2023-04-16T08:11:34;100252.22;;;11.47;84.04
73952;BME280;62304;47.662;18.324;2023-04-16T08:14:37;100257.97;;;11.94;82.68
73952;BME280;62304;47.662;18.324;2023-04-16T08:17:40;100255.88;;;12.24;81.61
73952;BME280;62304;47.662;18.324;2023-04-16T08:20:43;100261.63;;;12.45;80.62
73952;BME280;62304;47.662;18.324;2023-04-16T08:23:46;100253.41;;;12.16;80.80
73952;BME280;62304;47.662;18.324;2023-04-16T08:26:49;100266.66;;;11.89;81.70
73952;BME280;62304;47.662;18.324;2023-04-16T08:29:51;100261.63;;;11.65;82.86
73952;BME280;62304;47.662;18.324;2023-04-16T08:32:54;100266.63;;;11.56;83.32
73952;BME280;62304;47.662;18.324;2023-04-16T08:35:57;100260.72;;;11.28;83.95
73952;BME280;62304;47.662;18.324;2023-04-16T08:39:00;100265.34;;;11.17;84.78
73952;BME280;62304;47.662;18.324;2023-04-16T08:42:04;100263.66;;;11.09;85.13
73952;BME280;62304;47.662;18.324;2023-04-16T08:45:13;100259.75;;;10.88;85.98
73952;BME280;62304;47.662;18.324;2023-04-16T08:48:17;100262.16;;;10.89;86.44
73952;BME280;62304;47.662;18.324;2023-04-16T08:51:24;100265.47;;;10.98;86.39
73952;BME280;62304;47.662;18.324;2023-04-16T08:54:45;100272.94;;;10.94;86.62
73952;BME280;62304;47.662;18.324;2023-04-16T08:57:59;100273.34;;;10.96;86.79
73952;BME280;62304;47.662;18.324;2023-04-16T09:01:02;100273.34;;;10.96;87.38
73952;BME280;62304;47.662;18.324;2023-04-16T09:04:05;100279.34;;;10.98;87.06
73952;BME280;62304;47.662;18.324;2023-04-16T09:07:09;100289.22;;;10.96;87.74
73952;BME280;62304;47.662;18.324;2023-04-16T09:10:13;100284.94;;;11.02;87.84
73952;BME280;62304;47.662;18.324;2023-04-16T09:13:18;100283.91;;;11.13;87.46
73952;BME280;62304;47.662;18.324;2023-04-16T09:16:22;100280.25;;;11.35;86.72
73952;BME280;62304;47.662;18.324;2023-04-16T09:19:26;100279.00;;;11.59;86.22
73952;BME280;62304;47.662;18.324;2023-04-16T09:22:29;100278.28;;;11.65;85.15
73952;BME280;62304;47.662;18.324;2023-04-16T09:25:33;100292.91;;;11.95;84.72
73952;BME280;62304;47.662;18.324;2023-04-16T09:28:41;100293.78;;;12.43;83.84
73952;BME280;62304;47.662;18.324;2023-04-16T09:32:00;100289.94;;;12.54;82.54
73952;BME280;62304;47.662;18.324;2023-04-16T09:35:04;100280.81;;;12.57;81.70
73952;BME280;62304;47.662;18.324;2023-04-16T09:38:07;100277.87;;;12.90;80.87
73952;BME280;62304;47.662;18.324;2023-04-16T09:41:10;100279.56;;;12.98;80.42
73952;BME280;62304;47.662;18.324;2023-04-16T09:44:12;100277.78;;;13.30;77.94
73952;BME280;62304;47.662;18.324;2023-04-16T09:47:15;100284.50;;;13.29;79.00
73952;BME280;62304;47.662;18.324;2023-04-16T09:50:19;100282.19;;;13.38;77.13
73952;BME280;62304;47.662;18.324;2023-04-16T09:53:26;100286.97;;;13.38;78.03
73952;BME280;62304;47.662;18.324;2023-04-16T09:56:29;100280.75;;;13.72;76.33
73952;BME280;62304;47.662;18.324;2023-04-16T09:59:34;100280.44;;;13.98;75.28
73952;BME280;62304;47.662;18.324;2023-04-16T10:02:41;100270.56;;;14.25;74.03
73952;BME280;62304;47.662;18.324;2023-04-16T10:05:44;100280.97;;;14.56;73.00
73952;BME280;62304;47.662;18.324;2023-04-16T10:08:52;100279.75;;;14.61;74.44
73952;BME280;62304;47.662;18.324;2023-04-16T10:11:55;100280.56;;;14.40;72.05
73952;BME280;62304;47.662;18.324;2023-04-16T10:14:58;100282.53;;;14.64;72.50
73952;BME280;62304;47.662;18.324;2023-04-16T10:18:02;100275.75;;;14.93;70.85
73952;BME280;62304;47.662;18.324;2023-04-16T10:21:05;100268.13;;;15.08;70.42
73952;BME280;62304;47.662;18.324;2023-04-16T10:24:10;100257.31;;;15.31;69.46
73952;BME280;62304;47.662;18.324;2023-04-16T10:27:14;100253.22;;;15.63;67.16
73952;BME280;62304;47.662;18.324;2023-04-16T10:30:18;100251.84;;;15.99;65.38
73952;BME280;62304;47.662;18.324;2023-04-16T10:33:34;100259.06;;;15.97;65.70
73952;BME280;62304;47.662;18.324;2023-04-16T10:36:38;100259.84;;;15.97;65.80
73952;BME280;62304;47.662;18.324;2023-04-16T10:39:41;100265.06;;;15.92;65.88
73952;BME280;62304;47.662;18.324;2023-04-16T10:42:53;100270.47;;;15.44;67.81
73952;BME280;62304;47.662;18.324;2023-04-16T10:45:56;100268.03;;;15.53;67.98
73952;BME280;62304;47.662;18.324;2023-04-16T10:49:01;100259.19;;;15.72;67.53
73952;BME280;62304;47.662;18.324;2023-04-16T10:52:09;100271.63;;;15.57;66.92
73952;BME280;62304;47.662;18.324;2023-04-16T10:55:16;100261.16;;;15.72;66.23
73952;BME280;62304;47.662;18.324;2023-04-16T10:58:29;100260.34;;;15.78;66.62
73952;BME280;62304;47.662;18.324;2023-04-16T11:01:34;100259.94;;;15.83;64.94
73952;BME280;62304;47.662;18.324;2023-04-16T11:04:38;100262.16;;;16.09;64.90
73952;BME280;62304;47.662;18.324;2023-04-16T11:07:47;100256.03;;;16.32;63.52
73952;BME280;62304;47.662;18.324;2023-04-16T11:10:51;100260.66;;;17.40;60.74
73952;BME280;62304;47.662;18.324;2023-04-16T11:13:55;100251.31;;;17.84;58.73
73952;BME280;62304;47.662;18.324;2023-04-16T11:17:02;100259.62;;;17.91;58.96
73952;BME280;62304;47.662;18.324;2023-04-16T11:20:14;100247.41;;;18.04;58.59
73952;BME280;62304;47.662;18.324;2023-04-16T11:23:21;100254.59;;;18.35;57.58
73952;BME280;62304;47.662;18.324;2023-04-16T11:26:26;100246.44;;;18.67;56.90
73952;BME280;62304;47.662;18.324;2023-04-16T11:29:30;100246.56;;;18.83;55.27
73952;BME280;62304;47.662;18.324;2023-04-16T11:32:34;100236.66;;;18.52;57.03
73952;BME280;62304;47.662;18.324;2023-04-16T11:35:38;100246.87;;;18.89;55.30
73952;BME280;62304;47.662;18.324;2023-04-16T11:38:41;100243.63;;;18.90;54.74
73952;BME280;62304;47.662;18.324;2023-04-16T11:41:45;100240.66;;;18.78;53.91
73952;BME280;62304;47.662;18.324;2023-04-16T11:44:55;100230.19;;;18.55;53.34
73952;BME280;62304;47.662;18.324;2023-04-16T11:47:59;100228.69;;;17.68;56.33
73952;BME280;62304;47.662;18.324;2023-04-16T11:51:02;100231.97;;;17.26;56.50
73952;BME280;62304;47.662;18.324;2023-04-16T11:54:05;100227.56;;;16.88;58.38
73952;BME280;62304;47.662;18.324;2023-04-16T11:57:11;100237.56;;;16.41;59.32
73952;BME280;62304;47.662;18.324;2023-04-16T12:00:15;100233.44;;;16.60;58.90
73952;BME280;62304;47.662;18.324;2023-04-16T12:03:18;100226.31;;;16.52;59.55
73952;BME280;62304;47.662;18.324;2023-04-16T12:06:38;100222.69;;;15.97;60.02
73952;BME280;62304;47.662;18.324;2023-04-16T12:09:42;100229.56;;;15.82;60.52
73952;BME280;62304;47.662;18.324;2023-04-16T12:12:45;100220.84;;;15.66;61.10
73952;BME280;62304;47.662;18.324;2023-04-16T12:15:50;100218.19;;;15.38;61.70
73952;BME280;62304;47.662;18.324;2023-04-16T12:19:02;100219.81;;;15.35;62.97
73952;BME280;62304;47.662;18.324;2023-04-16T12:22:06;100217.69;;;15.64;61.82
73952;BME280;62304;47.662;18.324;2023-04-16T12:25:13;100213.66;;;15.68;62.02
73952;BME280;62304;47.662;18.324;2023-04-16T12:28:46;100212.50;;;15.59;62.18
73952;BME280;62304;47.662;18.324;2023-04-16T12:31:50;100206.16;;;16.16;61.19
73952;BME280;62304;47.662;18.324;2023-04-16T12:34:53;100205.75;;;16.14;61.37
73952;BME280;62304;47.662;18.324;2023-04-16T12:37:56;100200.13;;;16.18;60.99
73952;BME280;62304;47.662;18.324;2023-04-16T12:40:59;100194.75;;;16.48;60.37
73952;BME280;62304;47.662;18.324;2023-04-16T12:44:08;100196.25;;;16.56;60.63
73952;BME280;62304;47.662;18.324;2023-04-16T12:47:13;100193.31;;;17.10;59.32
73952;BME280;62304;47.662;18.324;2023-04-16T12:50:17;100192.56;;;17.36;58.68
73952;BME280;62304;47.662;18.324;2023-04-16T12:53:20;100187.62;;;17.51;58.09
73952;BME280;62304;47.662;18.324;2023-04-16T12:56:22;100186.56;;;17.38;58.47
73952;BME280;62304;47.662;18.324;2023-04-16T12:59:25;100186.09;;;18.03;56.95
73952;BME280;62304;47.662;18.324;2023-04-16T13:02:28;100182.75;;;17.85;57.40
73952;BME280;62304;47.662;18.324;2023-04-16T13:05:31;100193.44;;;18.20;57.18
73952;BME280;62304;47.662;18.324;2023-04-16T13:08:34;100183.50;;;18.84;55.41
73952;BME280;62304;47.662;18.324;2023-04-16T13:11:37;100167.13;;;19.02;54.86
73952;BME280;62304;47.662;18.324;2023-04-16T13:14:40;100174.38;;;18.80;54.95
73952;BME280;62304;47.662;18.324;2023-04-16T13:17:46;100168.34;;;18.09;56.10
73952;BME280;62304;47.662;18.324;2023-04-16T13:20:49;100171.53;;;17.85;56.69
73952;BME280;62304;47.662;18.324;2023-04-16T13:23:52;100172.41;;;17.52;57.67
73952;BME280;62304;47.662;18.324;2023-04-16T13:26:56;100168.81;;;17.78;56.32
73952;BME280;62304;47.662;18.324;2023-04-16T13:29:58;100172.75;;;18.10;55.74
73952;BME280;62304;47.662;18.324;2023-04-16T13:33:01;100169.84;;;17.91;56.27
73952;BME280;62304;47.662;18.324;2023-04-16T13:36:05;100160.44;;;17.48;57.17
73952;BME280;62304;47.662;18.324;2023-04-16T13:39:08;100167.03;;;16.97;58.57
73952;BME280;62304;47.662;18.324;2023-04-16T13:42:16;100169.63;;;17.15;58.04
73952;BME280;62304;47.662;18.324;2023-04-16T13:45:19;100167.47;;;16.92;58.28
73952;BME280;62304;47.662;18.324;2023-04-16T13:48:22;100169.09;;;16.90;58.29
73952;BME280;62304;47.662;18.324;2023-04-16T13:51:25;100170.66;;;17.28;57.38
73952;BME280;62304;47.662;18.324;2023-04-16T13:54:29;100174.97;;;17.39;57.32
73952;BME280;62304;47.662;18.324;2023-04-16T13:57:32;100171.81;;;17.30;57.38
73952;BME280;62304;47.662;18.324;2023-04-16T14:00:36;100160.81;;;16.79;58.67
73952;BME280;62304;47.662;18.324;2023-04-16T14:03:40;100175.44;;;16.57;59.71
73952;BME280;62304;47.662;18.324;2023-04-16T14:06:43;100174.72;;;16.49;59.68
73952;BME280;62304;47.662;18.324;2023-04-16T14:09:47;100173.13;;;16.48;59.11
73952;BME280;62304;47.662;18.324;2023-04-16T14:12:50;100170.59;;;16.61;59.24
73952;BME280;62304;47.662;18.324;2023-04-16T14:15:55;100165.03;;;16.57;59.19
73952;BME280;62304;47.662;18.324;2023-04-16T14:18:58;100168.25;;;16.56;59.21
73952;BME280;62304;47.662;18.324;2023-04-16T14:22:01;100167.56;;;16.85;58.89
73952;BME280;62304;47.662;18.324;2023-04-16T14:25:05;100159.28;;;16.75;58.47
73952;BME280;62304;47.662;18.324;2023-04-16T14:28:09;100163.56;;;16.83;59.18
73952;BME280;62304;47.662;18.324;2023-04-16T14:31:14;100159.09;;;16.89;59.24
73952;BME280;62304;47.662;18.324;2023-04-16T14:34:20;100163.94;;;17.22;58.56
73952;BME280;62304;47.662;18.324;2023-04-16T14:37:23;100153.31;;;17.36;57.64
73952;BME280;62304;47.662;18.324;2023-04-16T14:40:28;100156.44;;;17.45;57.99
73952;BME280;62304;47.662;18.324;2023-04-16T14:43:30;100161.34;;;17.04;57.52
73952;BME280;62304;47.662;18.324;2023-04-16T14:46:34;100154.94;;;17.04;58.48
73952;BME280;62304;47.662;18.324;2023-04-16T14:49:37;100152.37;;;16.83;58.78
73952;BME280;62304;47.662;18.324;2023-04-16T14:52:40;100157.41;;;16.61;59.51
73952;BME280;62304;47.662;18.324;2023-04-16T14:55:43;100149.09;;;16.54;59.60
73952;BME280;62304;47.662;18.324;2023-04-16T14:58:47;100154.41;;;16.35;60.15
73952;BME280;62304;47.662;18.324;2023-04-16T15:01:50;100156.53;;;16.20;60.32
73952;BME280;62304;47.662;18.324;2023-04-16T15:04:53;100150.69;;;16.04;60.84
73952;BME280;62304;47.662;18.324;2023-04-16T15:07:56;100147.88;;;16.04;60.90
73952;BME280;62304;47.662;18.324;2023-04-16T15:11:00;100148.03;;;15.87;61.46
73952;BME280;62304;47.662;18.324;2023-04-16T15:14:03;100151.28;;;15.78;62.41
73952;BME280;62304;47.662;18.324;2023-04-16T15:17:05;100148.44;;;15.85;61.95
73952;BME280;62304;47.662;18.324;2023-04-16T15:20:09;100140.94;;;15.72;62.37
73952;BME280;62304;47.662;18.324;2023-04-16T15:23:12;100149.72;;;15.70;62.42
73952;BME280;62304;47.662;18.324;2023-04-16T15:26:15;100147.97;;;15.94;61.95
73952;BME280;62304;47.662;18.324;2023-04-16T15:29:19;100149.91;;;16.04;61.77
73952;BME280;62304;47.662;18.324;2023-04-16T15:32:23;100159.25;;;15.83;62.12
73952;BME280;62304;47.662;18.324;2023-04-16T15:35:27;100157.78;;;15.61;63.05
73952;BME280;62304;47.662;18.324;2023-04-16T15:38:30;100150.53;;;15.71;63.07
73952;BME280;62304;47.662;18.324;2023-04-16T15:41:34;100155.31;;;15.70;63.58
73952;BME280;62304;47.662;18.324;2023-04-16T15:45:02;100164.94;;;15.66;64.15
73952;BME280;62304;47.662;18.324;2023-04-16T15:48:06;100164.72;;;15.36;65.65
73952;BME280;62304;47.662;18.324;2023-04-16T15:51:14;100171.53;;;15.21;66.39
73952;BME280;62304;47.662;18.324;2023-04-16T15:54:18;100170.41;;;14.97;67.37